Time;durP1;ratioP1;P1;durP2;ratioP2;P2;SDS_P1;SDS_P2;PMS_P1;PMS_P2;Temp;Humidity;BMP_temperature;BMP_pressure;BME280_temperature;BME280_humidity;BME280_pressure;Samples;Min_cycle;Max_cycle;Signal;HPM_P1;HPM_P2
2022/04/06 00:01:51;;;;;;;17.67;8.88;;;23.90;85.60;;;;;;1954811;73;21102;-79
2022/04/06 00:04:26;;;;;;;14.23;8.40;;;23.90;85.40;;;;;;1955344;73;21055;-80
2022/04/06 00:06:57;;;;;;;15.93;8.50;;;23.90;85.30;;;;;;1953773;73;21585;-79
2022/04/06 00:09:28;;;;;;;13.40;7.60;;;23.90;85.10;;;;;;1954941;73;21628;-79
2022/04/06 00:12:00;;;;;;;11.78;7.92;;;23.90;85.10;;;;;;1949680;73;21193;-79
2022/04/06 00:14:31;;;;;;;13.58;9.68;;;23.90;85.90;;;;;;1917420;73;21184;-80
2022/04/06 00:17:05;;;;;;;12.75;8.45;;;23.90;85.30;;;;;;1953616;73;21640;-79
2022/04/06 00:19:35;;;;;;;14.75;9.50;;;24.00;85.10;;;;;;1953321;73;21546;-79
2022/04/06 00:22:07;;;;;;;16.48;10.28;;;24.00;85.10;;;;;;1937625;73;21108;-78
2022/04/06 00:24:38;;;;;;;14.65;8.60;;;24.00;85.10;;;;;;1945425;73;21064;-79
2022/04/06 00:27:09;;;;;;;15.10;8.50;;;24.00;85.00;;;;;;1942792;74;21185;-79
2022/04/06 00:29:40;;;;;;;12.88;8.45;;;24.10;84.40;;;;;;1951552;73;21031;-78
2022/04/06 00:32:10;;;;;;;16.20;9.28;;;24.10;84.50;;;;;;1952424;73;21529;-79
2022/04/06 00:37:33;;;;;;;12.40;8.10;;;24.20;84.30;;;;;;1952764;73;21063;-80
2022/04/06 00:40:05;;;;;;;12.60;8.33;;;24.20;84.20;;;;;;1939744;73;21125;-80
2022/04/06 00:42:36;;;;;;;14.73;8.18;;;24.30;84.00;;;;;;1868488;76;21100;-79
2022/04/06 00:45:08;;;;;;;10.30;7.60;;;24.40;84.00;;;;;;1939488;74;21688;-80
2022/04/06 00:47:39;;;;;;;11.70;7.95;;;24.40;83.50;;;;;;1912174;74;21084;-79
2022/04/06 00:50:10;;;;;;;23.42;8.60;;;24.50;83.60;;;;;;1910883;75;21066;-79
2022/04/06 00:52:42;;;;;;;13.83;7.28;;;24.50;83.30;;;;;;1911713;74;21172;-79
2022/04/06 00:55:13;;;;;;;12.75;7.65;;;24.60;83.10;;;;;;1942342;74;21488;-80
2022/04/06 00:57:45;;;;;;;13.55;8.38;;;24.50;83.20;;;;;;1945173;74;21113;-79
2022/04/06 01:00:16;;;;;;;15.63;8.20;;;24.60;83.30;;;;;;1944724;74;21138;-79
2022/04/06 01:02:48;;;;;;;12.45;6.87;;;24.60;83.20;;;;;;1944941;74;21523;-79
2022/04/06 01:05:19;;;;;;;15.48;8.25;;;24.60;83.20;;;;;;1945096;74;21591;-79
2022/04/06 01:07:52;;;;;;;15.18;8.03;;;24.70;82.60;;;;;;1944356;74;21056;-79
2022/04/06 01:10:23;;;;;;;14.20;7.85;;;24.70;82.90;;;;;;1911534;75;21141;-79
2022/04/06 01:12:56;;;;;;;13.50;7.15;;;24.80;82.70;;;;;;1911706;74;21047;-78
2022/04/06 01:15:28;;;;;;;13.85;8.40;;;24.80;83.80;;;;;;1911503;74;21180;-79
2022/04/06 01:17:59;;;;;;;12.03;6.92;;;24.80;82.70;;;;;;1911252;74;21649;-78
2022/04/06 01:20:31;;;;;;;12.98;7.47;;;24.90;82.30;;;;;;1911435;75;21214;-78
2022/04/06 01:23:03;;;;;;;11.30;7.22;;;24.90;82.50;;;;;;1911701;74;21573;-78
2022/04/06 01:25:38;;;;;;;14.23;7.37;;;24.90;82.40;;;;;;1911604;75;21511;-78
2022/04/06 01:28:08;;;;;;;12.20;6.95;;;24.90;82.50;;;;;;1942747;74;21435;-79
2022/04/06 01:30:38;;;;;;;13.55;7.58;;;25.00;81.80;;;;;;1944572;73;21126;-79
2022/04/06 01:33:10;;;;;;;11.83;7.42;;;25.00;82.30;;;;;;1920806;74;21562;-79
2022/04/06 01:35:42;;;;;;;11.12;7.70;;;25.00;82.40;;;;;;1926620;74;21036;-79
2022/04/06 01:38:13;;;;;;;12.13;6.85;;;25.10;82.40;;;;;;1929364;74;21149;-79
2022/04/06 01:40:44;;;;;;;11.83;6.92;;;25.10;81.50;;;;;;1921392;74;21674;-79
2022/04/06 01:43:21;;;;;;;10.20;7.50;;;25.20;81.50;;;;;;1920635;74;21594;-79
2022/04/06 01:45:53;;;;;;;10.13;6.92;;;25.20;81.60;;;;;;1929383;73;21499;-78
2022/04/06 01:48:24;;;;;;;10.93;6.37;;;25.30;82.50;;;;;;1922250;74;21067;-79
2022/04/06 01:53:28;;;;;;;12.20;6.97;;;25.40;81.00;;;;;;1931795;73;21358;-78
2022/04/06 01:55:59;;;;;;;12.93;6.42;;;25.50;81.10;;;;;;1921576;74;21810;-79
2022/04/06 01:58:30;;;;;;;12.58;7.03;;;25.60;80.80;;;;;;1926515;73;21610;-80
2022/04/06 02:01:01;;;;;;;10.85;6.72;;;25.70;79.30;;;;;;1916675;74;21145;-79
2022/04/06 02:03:31;;;;;;;10.70;6.58;;;25.70;79.30;;;;;;1934881;73;21164;-80
2022/04/06 02:06:02;;;;;;;10.25;5.65;;;25.90;79.50;;;;;;1918266;74;21181;-81
2022/04/06 02:08:33;;;;;;;12.18;5.87;;;25.90;77.80;;;;;;1938497;73;21154;-79
2022/04/06 02:11:04;;;;;;;9.68;6.08;;;26.00;77.20;;;;;;1917300;74;21156;-81
2022/04/06 02:13:35;;;;;;;10.68;6.12;;;26.10;77.20;;;;;;1919696;74;21099;-79
2022/04/06 02:16:07;;;;;;;8.88;5.97;;;26.20;76.60;;;;;;1937598;73;21066;-79
2022/04/06 02:18:38;;;;;;;12.23;6.20;;;26.30;76.00;;;;;;1920071;74;21115;-79
2022/04/06 02:21:09;;;;;;;8.90;5.70;;;26.30;76.20;;;;;;1932022;73;21181;-79
2022/04/06 02:23:40;;;;;;;10.58;5.67;;;26.50;76.10;;;;;;1927246;74;21693;-78
2022/04/06 02:26:14;;;;;;;10.03;5.87;;;26.60;75.30;;;;;;1929655;73;21515;-78
2022/04/06 02:28:45;;;;;;;10.98;5.97;;;26.70;74.40;;;;;;1914079;74;21064;-78
2022/04/06 02:31:16;;;;;;;10.25;5.78;;;26.70;74.40;;;;;;1928614;73;21117;-78
2022/04/06 02:33:47;;;;;;;10.78;6.15;;;26.80;74.30;;;;;;1933889;74;21411;-78
2022/04/06 02:36:18;;;;;;;11.60;6.12;;;26.80;73.90;;;;;;1887935;75;21135;-79
2022/04/06 02:38:49;;;;;;;9.33;5.72;;;26.90;73.80;;;;;;1878158;75;21080;-78
2022/04/06 02:41:22;;;;;;;10.60;6.10;;;27.00;73.70;;;;;;1869365;77;21171;-79
2022/04/06 02:43:52;;;;;;;12.13;7.90;;;27.10;74.30;;;;;;1933271;74;21114;-79
2022/04/06 02:46:23;;;;;;;9.48;6.40;;;27.10;74.00;;;;;;1937019;74;21588;-81
2022/04/06 02:48:54;;;;;;;12.70;6.03;;;27.30;74.30;;;;;;1942599;73;21138;-80
2022/04/06 02:51:26;;;;;;;12.70;6.15;;;27.30;74.10;;;;;;1933335;74;21077;-79
2022/04/06 02:53:56;;;;;;;16.23;7.00;;;27.40;74.00;;;;;;1936817;74;21510;-80
2022/04/06 02:56:28;;;;;;;9.43;6.47;;;27.40;74.20;;;;;;1932388;74;21634;-80
2022/04/06 02:59:00;;;;;;;10.63;6.42;;;27.50;74.10;;;;;;1935595;74;21102;-79
2022/04/06 03:01:31;;;;;;;10.20;6.17;;;27.60;73.80;;;;;;1932589;74;21067;-79
2022/04/06 03:04:02;;;;;;;11.55;6.20;;;27.70;73.10;;;;;;1936819;74;21120;-79
2022/04/06 03:06:33;;;;;;;12.15;7.12;;;27.80;73.10;;;;;;1933394;74;21090;-79
2022/04/06 03:09:05;;;;;;;11.93;6.55;;;27.90;73.10;;;;;;1933207;74;21732;-79
2022/04/06 03:11:37;;;;;;;13.40;6.75;;;28.00;73.00;;;;;;1937163;74;21128;-79
2022/04/06 03:14:08;;;;;;;12.30;6.85;;;28.20;73.90;;;;;;1964062;73;21510;-80
2022/04/06 03:16:39;;;;;;;14.20;6.20;;;28.20;72.20;;;;;;1971404;73;21523;-80
2022/04/06 03:19:10;;;;;;;13.48;6.70;;;28.30;71.10;;;;;;1968131;73;21463;-81
2022/04/06 03:21:47;;;;;;;12.15;6.78;;;28.40;71.70;;;;;;1971563;73;21491;-80
2022/04/06 03:24:17;;;;;;;13.80;6.53;;;28.50;71.40;;;;;;1967397;73;21106;-80
2022/04/06 03:26:48;;;;;;;11.63;6.05;;;28.60;70.50;;;;;;1970546;73;21171;-79
2022/04/06 03:29:19;;;;;;;10.85;5.97;;;28.70;70.50;;;;;;1967359;73;21122;-79
2022/04/06 03:31:50;;;;;;;10.28;5.87;;;28.70;69.70;;;;;;1970884;73;21125;-80
2022/04/06 03:34:21;;;;;;;7.95;5.30;;;28.80;69.50;;;;;;1967055;73;21570;-80
2022/04/06 03:36:52;;;;;;;9.15;6.20;;;28.80;69.10;;;;;;1971337;73;21519;-79
2022/04/06 03:39:26;;;;;;;10.85;5.87;;;28.80;69.10;;;;;;1967582;73;21487;-79
2022/04/06 03:41:57;;;;;;;9.45;5.53;;;28.80;69.30;;;;;;1952216;73;21535;-78
2022/04/06 03:44:28;;;;;;;10.98;6.30;;;28.90;69.30;;;;;;1938780;74;21201;-80
2022/04/06 03:46:59;;;;;;;13.15;6.70;;;28.90;69.20;;;;;;1938413;74;21075;-79
2022/04/06 03:49:32;;;;;;;9.60;5.47;;;29.00;69.10;;;;;;1950935;73;21059;-79
2022/04/06 03:52:03;;;;;;;10.43;5.95;;;29.00;68.40;;;;;;1938407;74;21072;-79
2022/04/06 03:54:34;;;;;;;9.13;5.47;;;29.10;68.00;;;;;;1951413;73;21056;-79
2022/04/06 03:57:05;;;;;;;7.92;5.50;;;29.20;68.50;;;;;;1928900;74;21578;-79
2022/04/06 03:59:36;;;;;;;8.60;5.78;;;29.30;67.50;;;;;;1933822;73;21071;-79
2022/04/06 04:02:07;;;;;;;11.63;6.55;;;29.40;68.00;;;;;;1919176;74;21135;-81
2022/04/06 04:04:38;;;;;;;7.67;6.03;;;29.50;67.60;;;;;;1933062;73;21049;-79
2022/04/06 04:07:09;;;;;;;9.40;5.90;;;29.60;66.70;;;;;;1904999;75;21176;-80
2022/04/06 04:09:40;;;;;;;10.63;6.08;;;29.70;67.30;;;;;;1917101;75;21071;-80
2022/04/06 04:12:11;;;;;;;7.87;5.67;;;29.70;66.20;;;;;;1904869;75;21048;-79
2022/04/06 04:14:43;;;;;;;10.98;6.25;;;29.70;66.20;;;;;;1917276;73;21133;-80
2022/04/06 04:17:14;;;;;;;9.63;5.47;;;29.70;66.30;;;;;;1917087;75;21071;-80
2022/04/06 04:19:45;;;;;;;9.00;5.42;;;29.80;66.20;;;;;;1906787;73;21114;-81
2022/04/06 04:22:18;;;;;;;7.90;5.55;;;29.80;66.10;;;;;;1922693;73;21146;-79
2022/04/06 04:24:49;;;;;;;8.93;5.72;;;29.80;65.40;;;;;;1904026;75;21099;-79
2022/04/06 04:27:23;;;;;;;8.80;4.92;;;29.90;66.00;;;;;;1916736;73;21154;-80
2022/04/06 04:29:54;;;;;;;8.05;5.22;;;30.00;65.00;;;;;;1905435;74;21064;-81
2022/04/06 04:32:25;;;;;;;9.80;4.28;;;30.10;64.90;;;;;;1920042;73;21127;-81
2022/04/06 04:34:56;;;;;;;7.28;5.08;;;30.20;64.00;;;;;;1911280;74;21099;-81
2022/04/06 04:37:27;;;;;;;8.63;4.80;;;30.30;63.90;;;;;;1939130;73;21149;-81
2022/04/06 04:39:58;;;;;;;9.50;4.70;;;30.40;64.30;;;;;;1936978;74;21547;-80
2022/04/06 04:42:29;;;;;;;9.43;5.20;;;30.40;63.60;;;;;;1950110;73;21578;-82
2022/04/06 04:45:00;;;;;;;8.63;4.85;;;30.50;63.50;;;;;;1916378;75;21190;-79
2022/04/06 04:47:32;;;;;;;6.53;4.80;;;30.50;63.10;;;;;;1917140;72;21071;-79
2022/04/06 04:50:04;;;;;;;7.87;4.83;;;30.50;63.80;;;;;;1917046;75;21144;-80
2022/04/06 04:52:35;;;;;;;8.73;5.08;;;30.50;62.40;;;;;;1851142;76;21147;-80
2022/04/06 04:55:06;;;;;;;6.53;4.97;;;30.60;62.80;;;;;;1916297;72;21809;-79
2022/04/06 04:57:36;;;;;;;8.33;5.30;;;30.60;62.90;;;;;;1921426;73;21071;-80
2022/04/06 05:00:09;;;;;;;7.90;4.53;;;30.60;63.30;;;;;;1927063;72;21050;-81
2022/04/06 05:02:40;;;;;;;7.33;4.55;;;30.70;63.20;;;;;;1948752;73;21071;-81
2022/04/06 05:05:14;;;;;;;9.80;6.22;;;30.80;62.90;;;;;;1937742;73;21111;-81
2022/04/06 05:07:43;;;;;;;7.22;5.20;;;30.90;62.80;;;;;;1934741;73;21545;-81
2022/04/06 05:10:14;;;;;;;7.12;4.80;;;31.00;62.90;;;;;;1942390;73;21182;-81
2022/04/06 05:12:48;;;;;;;6.15;5.08;;;31.00;62.40;;;;;;1924750;72;21537;-80
2022/04/06 05:15:25;;;;;;;7.92;5.00;;;31.00;62.50;;;;;;1938484;73;21067;-80
2022/04/06 05:17:56;;;;;;;10.23;5.10;;;31.00;61.80;;;;;;1935863;73;21075;-81
2022/04/06 05:20:27;;;;;;;9.75;4.90;;;31.00;62.10;;;;;;1928216;73;21616;-81
2022/04/06 05:22:58;;;;;;;8.13;5.30;;;31.00;62.50;;;;;;1949387;73;21478;-80
2022/04/06 05:25:29;;;;;;;7.42;4.90;;;30.90;61.80;;;;;;1949403;73;21092;-81
2022/04/06 05:28:00;;;;;;;12.00;5.65;;;30.90;62.60;;;;;;1947908;73;21625;-80
2022/04/06 05:30:32;;;;;;;9.25;4.92;;;31.00;62.80;;;;;;1934108;72;21180;-81
2022/04/06 05:33:03;;;;;;;8.88;4.25;;;31.10;62.50;;;;;;1926277;73;21143;-81
2022/04/06 05:35:34;;;;;;;7.35;4.35;;;31.10;61.10;;;;;;1927474;72;21735;-80
2022/04/06 05:38:04;;;;;;;7.25;4.35;;;31.20;60.00;;;;;;1933324;72;21554;-80
2022/04/06 05:40:35;;;;;;;8.63;4.72;;;31.20;60.40;;;;;;1938713;73;21064;-81
2022/04/06 05:43:06;;;;;;;7.15;4.58;;;31.20;61.00;;;;;;1930208;73;21094;-81
2022/04/06 05:45:37;;;;;;;7.33;5.03;;;31.30;60.90;;;;;;1928350;74;21177;-81
2022/04/06 05:48:09;;;;;;;6.33;4.25;;;31.40;60.20;;;;;;1927583;74;21102;-82
2022/04/06 05:50:40;;;;;;;8.40;4.58;;;31.40;59.90;;;;;;1851916;77;21526;-79
2022/04/06 05:53:11;;;;;;;7.40;4.50;;;31.40;60.00;;;;;;1922491;74;21570;-81
2022/04/06 05:55:47;;;;;;;7.62;4.15;;;31.40;59.60;;;;;;1908718;75;21079;-81
2022/04/06 05:58:16;;;;;;;6.53;4.30;;;31.40;59.60;;;;;;1851965;76;21210;-81
2022/04/06 06:00:47;;;;;;;7.47;3.92;;;31.40;59.00;;;;;;1908006;74;21162;-80
2022/04/06 06:03:19;;;;;;;8.80;4.47;;;31.40;59.40;;;;;;1923471;74;21087;-81
2022/04/06 06:05:50;;;;;;;8.60;4.50;;;31.40;59.10;;;;;;1882339;76;21207;-80
2022/04/06 06:08:21;;;;;;;8.15;4.33;;;31.40;59.40;;;;;;1931705;74;21534;-80
2022/04/06 06:10:53;;;;;;;5.80;4.17;;;31.40;60.60;;;;;;1924444;74;21570;-81
2022/04/06 06:13:23;;;;;;;8.53;5.67;;;31.50;59.10;;;;;;1852359;77;21151;-81
2022/04/06 06:15:55;;;;;;;6.15;4.30;;;31.60;58.70;;;;;;1906345;75;21133;-80
2022/04/06 06:18:26;;;;;;;7.72;5.10;;;31.60;58.60;;;;;;1909420;75;21573;-80
2022/04/06 06:21:00;;;;;;;7.85;4.45;;;31.70;58.50;;;;;;1881993;76;21151;-80
2022/04/06 06:23:29;;;;;;;8.23;4.33;;;31.80;58.40;;;;;;1877383;76;21147;-79
2022/04/06 06:26:01;;;;;;;6.95;4.28;;;31.80;58.30;;;;;;1894901;73;21848;-80
2022/04/06 06:28:31;;;;;;;6.40;4.10;;;31.80;59.10;;;;;;1927603;74;21202;-80
2022/04/06 06:31:02;;;;;;;5.70;3.85;;;31.90;58.50;;;;;;1928580;74;21143;-81
2022/04/06 06:33:33;;;;;;;9.00;4.55;;;31.80;58.00;;;;;;1927671;74;21517;-81
2022/04/06 06:36:05;;;;;;;7.47;4.08;;;31.80;57.50;;;;;;1933503;73;21537;-81
2022/04/06 06:38:35;;;;;;;7.72;4.60;;;31.80;58.00;;;;;;1912460;74;21578;-80
2022/04/06 06:41:06;;;;;;;6.08;4.25;;;31.90;58.30;;;;;;1908776;75;21669;-81
2022/04/06 06:43:37;;;;;;;7.53;5.20;;;31.90;57.70;;;;;;1913075;74;21578;-81
2022/04/06 06:46:09;;;;;;;7.92;4.50;;;31.80;57.40;;;;;;1903414;75;21185;-81
2022/04/06 06:48:40;;;;;;;9.10;4.87;;;31.90;57.30;;;;;;1916214;75;21063;-80
2022/04/06 06:51:12;;;;;;;7.25;4.47;;;31.80;57.40;;;;;;1925346;74;21103;-80
2022/04/06 06:53:43;;;;;;;5.87;4.08;;;31.80;57.40;;;;;;1949870;73;21399;-81
2022/04/06 06:56:15;;;;;;;6.75;5.00;;;31.70;57.30;;;;;;1936844;74;21629;-81
2022/04/06 06:58:45;;;;;;;7.90;4.83;;;31.70;57.40;;;;;;1926332;74;21661;-81
2022/04/06 07:01:17;;;;;;;7.72;4.70;;;31.70;57.30;;;;;;1903830;75;21212;-80
2022/04/06 07:03:48;;;;;;;9.28;5.35;;;31.60;57.70;;;;;;1917236;75;21585;-80
2022/04/06 07:06:19;;;;;;;9.20;4.87;;;31.60;58.60;;;;;;1917157;75;21051;-80
2022/04/06 07:08:50;;;;;;;7.58;5.12;;;31.60;57.80;;;;;;1908343;74;21269;-81
2022/04/06 07:11:20;;;;;;;8.95;4.83;;;31.60;57.50;;;;;;1920579;73;21074;-80
2022/04/06 07:13:51;;;;;;;8.68;5.20;;;31.60;57.50;;;;;;1905248;74;21515;-80
2022/04/06 07:16:22;;;;;;;6.78;5.20;;;31.60;57.10;;;;;;1917307;75;21534;-81
2022/04/06 07:18:55;;;;;;;10.90;5.10;;;31.60;57.50;;;;;;1904973;74;21072;-80
2022/04/06 07:21:26;;;;;;;13.70;5.58;;;31.60;57.40;;;;;;1939138;73;21075;-80
2022/04/06 07:23:58;;;;;;;9.50;5.33;;;31.60;57.30;;;;;;1916536;75;21158;-79
2022/04/06 07:26:29;;;;;;;6.83;5.53;;;31.60;57.10;;;;;;1922489;74;21133;-81
2022/04/06 07:29:00;;;;;;;7.55;5.40;;;31.60;57.00;;;;;;1951355;73;21040;-80
2022/04/06 07:31:31;;;;;;;8.53;4.97;;;31.60;57.10;;;;;;1948813;73;21540;-80
2022/04/06 07:34:02;;;;;;;9.75;5.30;;;31.50;56.80;;;;;;1926765;73;21519;-80
2022/04/06 07:36:33;;;;;;;11.10;5.80;;;31.50;57.20;;;;;;1930188;74;21118;-81
2022/04/06 07:39:05;;;;;;;8.38;6.28;;;31.50;57.50;;;;;;1917358;75;21130;-81
2022/04/06 07:41:36;;;;;;;7.97;5.58;;;31.60;57.00;;;;;;1907963;74;21071;-81
2022/04/06 07:44:13;;;;;;;7.22;5.72;;;31.50;56.90;;;;;;1941671;73;21144;-81
2022/04/06 07:46:45;;;;;;;8.08;5.67;;;31.50;57.30;;;;;;1939931;74;21571;-81
2022/04/06 07:49:16;;;;;;;8.10;5.67;;;31.50;56.90;;;;;;1931404;74;21519;-82
2022/04/06 07:51:49;;;;;;;9.10;6.53;;;31.40;57.30;;;;;;1933122;74;21138;-80
2022/04/06 07:54:20;;;;;;;11.60;7.10;;;31.40;57.70;;;;;;1873469;76;22378;-80
2022/04/06 07:56:51;;;;;;;9.33;6.50;;;31.40;57.20;;;;;;1939481;74;21075;-80
2022/04/06 07:59:21;;;;;;;8.85;5.70;;;31.40;57.10;;;;;;1941996;74;21643;-81
2022/04/06 08:01:52;;;;;;;7.40;6.28;;;31.40;56.90;;;;;;1879026;76;21129;-81
2022/04/06 08:04:27;;;;;;;8.28;5.70;;;31.40;57.10;;;;;;1928515;74;21623;-81
2022/04/06 08:06:58;;;;;;;7.40;5.55;;;31.40;56.80;;;;;;1915986;74;21094;-81
2022/04/06 08:09:29;;;;;;;10.78;6.00;;;31.40;56.40;;;;;;1887078;76;21062;-80
2022/04/06 08:12:01;;;;;;;6.80;5.70;;;31.40;56.60;;;;;;1909611;74;21083;-81
2022/04/06 08:14:32;;;;;;;9.90;5.92;;;31.40;56.70;;;;;;1909519;74;21087;-81
2022/04/06 08:17:04;;;;;;;9.23;6.83;;;31.40;56.60;;;;;;1852940;76;21141;-81
2022/04/06 08:19:35;;;;;;;11.10;7.30;;;31.40;56.20;;;;;;1916423;74;21487;-80
2022/04/06 08:22:06;;;;;;;8.58;6.25;;;31.40;56.60;;;;;;1943478;73;21137;-80
2022/04/06 08:24:38;;;;;;;9.88;6.00;;;31.30;56.70;;;;;;1883735;76;21082;-80
2022/04/06 08:27:09;;;;;;;8.73;6.40;;;31.40;56.40;;;;;;1916308;73;21095;-80
2022/04/06 08:29:46;;;;;;;13.32;6.33;;;31.40;56.70;;;;;;1909522;75;21192;-80
2022/04/06 08:32:18;;;;;;;7.55;6.25;;;31.40;56.60;;;;;;1855104;76;21609;-80
2022/04/06 08:34:51;;;;;;;8.78;6.78;;;31.40;55.90;;;;;;1914478;73;21132;-79
2022/04/06 08:37:22;;;;;;;12.28;6.80;;;31.40;55.30;;;;;;1940976;74;21090;-79
2022/04/06 08:39:53;;;;;;;9.20;6.33;;;31.40;55.50;;;;;;1882939;76;21086;-79
2022/04/06 08:42:32;;;;;;;8.95;6.67;;;31.30;55.70;;;;;;1911117;74;21181;-80
2022/04/06 08:45:16;;;;;;;9.48;6.22;;;31.30;56.20;;;;;;1926640;73;21216;-80
2022/04/06 08:47:49;;;;;;;8.00;6.20;;;31.30;56.20;;;;;;1876660;76;21149;-79
2022/04/06 08:50:21;;;;;;;10.05;6.20;;;31.20;56.20;;;;;;1921925;73;21282;-79
2022/04/06 08:53:04;;;;;;;9.28;6.72;;;31.20;56.70;;;;;;1918896;75;21126;-80
2022/04/06 08:55:35;;;;;;;7.62;6.10;;;31.20;56.30;;;;;;1989814;72;21153;-80
2022/04/06 08:58:07;;;;;;;8.78;7.05;;;31.20;56.70;;;;;;1933817;74;21746;-80
2022/04/06 09:00:38;;;;;;;8.53;6.45;;;31.20;56.90;;;;;;1931355;74;21507;-80
2022/04/06 09:03:10;;;;;;;9.50;6.50;;;31.20;56.90;;;;;;1922057;74;21584;-79
2022/04/06 09:05:45;;;;;;;9.90;6.28;;;31.20;56.90;;;;;;1930514;74;21066;-81
2022/04/06 09:08:16;;;;;;;8.48;6.85;;;31.10;57.00;;;;;;1913958;74;21078;-79
2022/04/06 09:10:48;;;;;;;10.08;7.20;;;31.10;56.10;;;;;;1923712;74;21083;-80
2022/04/06 09:13:20;;;;;;;9.53;6.45;;;31.10;56.30;;;;;;1914789;74;21116;-79
2022/04/06 09:15:55;;;;;;;9.08;6.78;;;31.00;56.20;;;;;;1965166;72;21525;-81
2022/04/06 09:18:29;;;;;;;9.70;6.33;;;31.00;56.20;;;;;;1963039;72;21123;-81
2022/04/06 09:21:05;;;;;;;9.28;6.78;;;30.90;56.00;;;;;;1977301;72;21119;-80
2022/04/06 09:23:36;;;;;;;14.75;6.75;;;30.90;56.20;;;;;;1912060;74;21115;-81
2022/04/06 09:26:09;;;;;;;9.60;6.58;;;30.90;56.40;;;;;;1878693;75;21715;-81
2022/04/06 09:28:44;;;;;;;8.68;6.72;;;30.90;56.80;;;;;;1913494;74;21132;-81
2022/04/06 09:31:17;;;;;;;9.68;6.78;;;30.90;57.10;;;;;;1912067;74;21191;-81
2022/04/06 09:33:51;;;;;;;14.50;6.87;;;30.80;56.90;;;;;;1901481;74;21100;-81
2022/04/06 09:36:23;;;;;;;9.00;6.15;;;30.80;57.10;;;;;;1889316;74;21138;-80
2022/04/06 09:38:54;;;;;;;9.43;6.60;;;30.80;57.30;;;;;;1890101;75;21236;-80
2022/04/06 09:41:25;;;;;;;8.65;6.62;;;30.80;57.30;;;;;;1916912;74;21208;-81
2022/04/06 09:43:57;;;;;;;9.50;7.00;;;30.80;57.50;;;;;;1894789;75;21104;-81
2022/04/06 09:49:03;;;;;;;8.73;6.67;;;30.80;57.70;;;;;;1963423;72;21066;-80
2022/04/06 09:51:34;;;;;;;15.28;7.10;;;30.80;57.70;;;;;;1966639;72;21112;-81
2022/04/06 09:54:12;;;;;;;12.80;8.90;;;30.80;57.60;;;;;;1964110;72;21073;-80
2022/04/06 09:56:45;;;;;;;14.73;7.92;;;30.70;57.40;;;;;;1956141;72;21236;-80
2022/04/06 09:59:16;;;;;;;10.18;7.58;;;30.70;57.50;;;;;;1948323;72;21133;-81
2022/04/06 10:01:52;;;;;;;9.55;7.37;;;30.70;57.50;;;;;;1951761;72;21076;-80
2022/04/06 10:04:25;;;;;;;11.38;8.25;;;30.70;57.40;;;;;;1950255;72;21131;-78
2022/04/06 10:06:58;;;;;;;13.45;8.23;;;30.60;57.30;;;;;;1953401;72;21135;-80
2022/04/06 10:09:32;;;;;;;11.10;7.97;;;30.60;57.50;;;;;;1952924;72;21238;-81
2022/04/06 10:12:03;;;;;;;11.57;8.03;;;30.60;57.60;;;;;;1950903;72;21493;-79
2022/04/06 10:14:34;;;;;;;10.88;8.78;;;30.60;57.50;;;;;;1957276;72;21154;-79
2022/04/06 10:17:16;;;;;;;14.75;9.43;;;30.60;57.50;;;;;;1899052;75;21218;-80
2022/04/06 10:19:45;;;;;;;13.22;8.93;;;30.50;57.50;;;;;;1853777;76;21810;-80
2022/04/06 10:22:18;;;;;;;13.50;9.43;;;30.60;57.80;;;;;;1901286;74;21124;-80
2022/04/06 10:24:54;;;;;;;10.60;8.60;;;30.50;58.70;;;;;;1956345;72;21136;-80
2022/04/06 10:27:28;;;;;;;13.95;9.40;;;30.50;58.10;;;;;;1947525;72;21046;-79
2022/04/06 10:30:01;;;;;;;13.88;9.50;;;30.40;58.20;;;;;;1953318;72;21044;-80
2022/04/06 10:32:34;;;;;;;11.68;9.25;;;30.40;58.30;;;;;;1955389;72;21187;-81
2022/04/06 10:35:08;;;;;;;13.18;9.28;;;30.40;58.40;;;;;;1958127;72;21056;-80
2022/04/06 10:40:35;;;;;;;15.75;9.63;;;30.30;58.50;;;;;;1896742;75;21743;-81
2022/04/06 10:43:13;;;;;;;16.77;10.48;;;30.30;58.60;;;;;;1891949;74;21763;-82
2022/04/06 10:45:44;;;;;;;15.40;10.30;;;30.30;58.60;;;;;;1887042;74;21098;-81
2022/04/06 10:48:22;;;;;;;20.37;10.35;;;30.30;58.90;;;;;;1912558;73;21272;-81
2022/04/06 10:50:53;;;;;;;15.55;10.25;;;30.30;59.00;;;;;;1883974;75;21375;-81
2022/04/06 10:53:27;;;;;;;16.30;11.68;;;30.30;59.20;;;;;;1894850;74;21076;-80
2022/04/06 10:56:06;;;;;;;13.00;10.30;;;30.20;59.30;;;;;;1929122;74;21594;-81
2022/04/06 10:58:40;;;;;;;13.88;9.98;;;30.20;59.30;;;;;;1928776;73;21072;-80
2022/04/06 11:01:13;;;;;;;15.35;10.32;;;30.10;59.50;;;;;;1930465;74;21635;-81
2022/04/06 11:03:47;;;;;;;14.63;10.75;;;30.10;59.70;;;;;;1935071;73;21254;-80
2022/04/06 11:06:20;;;;;;;17.48;9.50;;;30.10;59.80;;;;;;1926392;73;21198;-81
2022/04/06 11:11:28;;;;;;;13.55;10.25;;;30.00;60.00;;;;;;1921076;74;21126;-79
2022/04/06 11:14:00;;;;;;;13.40;10.78;;;30.00;60.10;;;;;;1917649;73;21076;-80
2022/04/06 11:16:33;;;;;;;18.23;10.53;;;30.00;60.00;;;;;;1924229;74;21307;-80
2022/04/06 11:19:05;;;;;;;13.72;10.30;;;29.90;60.00;;;;;;1928218;73;21099;-80
2022/04/06 11:21:36;;;;;;;16.20;11.55;;;29.90;60.10;;;;;;1907033;74;21095;-81
2022/04/06 11:24:08;;;;;;;14.15;10.35;;;29.90;60.20;;;;;;1978668;71;21536;-80
2022/04/06 11:26:39;;;;;;;15.43;10.80;;;29.80;60.40;;;;;;1978758;71;21064;-81
2022/04/06 11:29:11;;;;;;;14.98;10.70;;;29.80;60.50;;;;;;1928469;74;21060;-81
2022/04/06 11:31:45;;;;;;;17.10;11.80;;;29.80;60.70;;;;;;1895072;75;21107;-80
2022/04/06 11:34:18;;;;;;;17.30;12.25;;;29.80;60.90;;;;;;1903656;74;21150;-80
2022/04/06 11:36:51;;;;;;;21.73;13.25;;;29.70;62.20;;;;;;1912023;74;21539;-79
2022/04/06 11:39:21;;;;;;;20.62;13.60;;;29.70;61.30;;;;;;1916502;73;21128;-79
2022/04/06 11:41:52;;;;;;;22.77;14.28;;;29.70;61.60;;;;;;1865775;76;21700;-80
2022/04/06 11:44:24;;;;;;;24.37;13.15;;;29.70;61.80;;;;;;1885204;75;21167;-80
2022/04/06 11:46:57;;;;;;;19.87;13.00;;;29.70;61.90;;;;;;1883673;75;21080;-78
2022/04/06 11:49:29;;;;;;;22.93;13.40;;;29.70;62.00;;;;;;1881575;75;21071;-80
2022/04/06 11:52:02;;;;;;;19.23;12.82;;;29.60;61.90;;;;;;1898211;75;21136;-79
2022/04/06 11:54:33;;;;;;;17.62;12.13;;;29.60;62.00;;;;;;1871562;75;21081;-80
2022/04/06 11:57:04;;;;;;;19.60;11.83;;;29.60;61.90;;;;;;1891055;75;21097;-80
2022/04/06 11:59:37;;;;;;;17.15;11.88;;;29.60;62.10;;;;;;1852939;76;21113;-80
2022/04/06 12:02:08;;;;;;;15.28;11.40;;;29.60;62.10;;;;;;1888187;74;21085;-81
2022/04/06 12:04:40;;;;;;;17.20;12.23;;;29.50;62.20;;;;;;1881874;74;21048;-80
2022/04/06 12:07:19;;;;;;;16.85;11.45;;;29.50;62.20;;;;;;1879497;75;21047;-81
2022/04/06 12:09:59;;;;;;;17.95;12.03;;;29.50;62.20;;;;;;1898391;74;21827;-82
2022/04/06 12:12:39;;;;;;;20.65;13.13;;;29.50;62.30;;;;;;1901071;73;21118;-78
2022/04/06 12:15:16;;;;;;;16.10;11.75;;;29.40;62.30;;;;;;1916284;73;21056;-84
2022/04/06 12:18:01;;;;;;;19.07;13.15;;;29.40;62.40;;;;;;1884090;76;21499;-82
2022/04/06 12:20:54;;;;;;;18.50;12.88;;;29.40;62.40;;;;;;1828693;76;21310;-79
2022/04/06 12:23:27;;;;;;;23.87;14.20;;;29.30;62.50;;;;;;1880687;76;21691;-82
2022/04/06 12:26:05;;;;;;;20.00;13.78;;;29.30;62.50;;;;;;1848008;77;21133;-79
2022/04/06 12:28:32;;;;;;;20.75;14.65;;;29.30;63.50;;;;;;1836815;76;21136;-80
2022/04/06 12:31:05;;;;;;;21.82;14.43;;;29.20;62.50;;;;;;1882527;76;21642;-79
2022/04/06 12:33:39;;;;;;;22.50;14.50;;;29.20;62.50;;;;;;1888618;75;21142;-80
2022/04/06 12:38:47;;;;;;;24.05;14.55;;;29.10;62.70;;;;;;1880226;76;21145;-81
2022/04/06 12:41:19;;;;;;;22.60;14.53;;;29.10;62.80;;;;;;1874646;75;21076;-80
2022/04/06 12:43:51;;;;;;;21.27;14.55;;;29.10;62.80;;;;;;1867429;75;21677;-79
2022/04/06 12:46:24;;;;;;;22.42;14.75;;;29.10;62.90;;;;;;1856922;75;21186;-80
2022/04/06 12:49:00;;;;;;;25.52;15.18;;;29.10;63.00;;;;;;1878112;75;21076;-80
2022/04/06 12:51:32;;;;;;;19.77;15.10;;;29.10;63.20;;;;;;1866742;75;21253;-80
2022/04/06 12:54:06;;;;;;;18.32;14.23;;;29.10;63.20;;;;;;1864281;75;21661;-80
2022/04/06 12:56:37;;;;;;;22.00;14.85;;;29.10;63.20;;;;;;1893425;75;21107;-79
2022/04/06 12:59:12;;;;;;;20.68;15.20;;;29.00;63.20;;;;;;1893413;74;21080;-80
2022/04/06 13:01:45;;;;;;;24.80;15.08;;;29.00;63.20;;;;;;1901567;74;21181;-79
2022/04/06 13:04:16;;;;;;;21.12;15.20;;;29.00;63.30;;;;;;1887437;74;21267;-80
2022/04/06 13:06:47;;;;;;;21.48;14.90;;;29.00;63.30;;;;;;1881109;75;21157;-80
2022/04/06 13:09:18;;;;;;;19.92;15.60;;;28.90;63.20;;;;;;1878855;75;21083;-79
2022/04/06 13:11:51;;;;;;;23.62;15.90;;;28.90;63.10;;;;;;1881463;76;21088;-79
2022/04/06 13:14:26;;;;;;;18.70;14.73;;;28.90;63.20;;;;;;1918268;73;21183;-79
2022/04/06 13:16:57;;;;;;;25.05;15.78;;;28.90;63.20;;;;;;1932873;74;21119;-80
2022/04/06 13:19:29;;;;;;;22.98;15.58;;;28.90;63.20;;;;;;1884869;74;21487;-79